createdAt,value
2019-01-04T00:01:17.947Z,0.50
2019-01-04T00:03:46.941Z,0.50
2019-01-04T00:06:15.978Z,0.50
2019-01-04T00:08:45.085Z,0.50
2019-01-04T00:11:13.856Z,0.50
2019-01-04T00:13:42.785Z,0.50
2019-01-04T00:16:11.572Z,0.40
2019-01-04T00:18:40.434Z,0.50
2019-01-04T00:21:09.285Z,0.50
2019-01-04T00:23:38.143Z,0.50
2019-01-04T00:26:07.309Z,0.60
2019-01-04T00:28:36.097Z,0.60
2019-01-04T00:31:05.534Z,0.60
2019-01-04T00:33:34.390Z,0.60
2019-01-04T00:36:03.308Z,0.50
2019-01-04T00:38:32.167Z,0.50
2019-01-04T00:41:01.090Z,0.50
2019-01-04T00:43:29.920Z,0.40
2019-01-04T00:45:58.801Z,0.40
2019-01-04T00:48:27.877Z,0.40
2019-01-04T00:50:56.736Z,0.30
2019-01-04T00:53:25.593Z,0.30
2019-01-04T00:56:52.277Z,0.40
2019-01-04T00:59:58.101Z,0.40
2019-01-04T01:03:15.417Z,0.40
2019-01-04T01:06:15.527Z,0.40
2019-01-04T01:09:20.362Z,0.40
2019-01-04T01:12:51.860Z,0.40
2019-01-04T01:15:53.744Z,0.40
2019-01-04T01:19:06.145Z,0.40
2019-01-04T01:22:25.411Z,0.40
2019-01-04T01:25:53.721Z,0.40
2019-01-04T01:29:12.628Z,0.40
2019-01-04T01:31:58.358Z,0.40
2019-01-04T01:34:57.952Z,0.40
2019-01-04T01:38:11.057Z,0.40
2019-01-04T01:40:58.625Z,0.40
2019-01-04T01:44:02.105Z,0.40
2019-01-04T01:46:44.283Z,0.40
2019-01-04T01:49:50.727Z,0.30
2019-01-04T01:52:27.004Z,0.30
2019-01-04T01:54:55.856Z,0.30
2019-01-04T01:57:24.623Z,0.30
2019-01-04T01:59:53.726Z,0.30
2019-01-04T02:02:22.505Z,0.40
2019-01-04T02:04:51.290Z,0.40
2019-01-04T02:07:20.149Z,0.50
2019-01-04T02:09:49.167Z,0.50
2019-01-04T02:12:18.242Z,0.50
2019-01-04T02:14:47.159Z,0.40
2019-01-04T02:17:16.037Z,0.40
2019-01-04T02:19:44.886Z,0.40
2019-01-04T02:22:13.659Z,0.30
2019-01-04T02:24:42.429Z,0.40
2019-01-04T02:27:11.209Z,0.40
2019-01-04T02:29:39.986Z,0.30
2019-01-04T02:32:08.769Z,0.30
2019-01-04T02:34:37.541Z,0.20
2019-01-04T02:37:06.329Z,0.20
2019-01-04T02:39:35.349Z,0.20
2019-01-04T02:42:04.370Z,0.30
2019-01-04T02:44:33.136Z,0.30
2019-01-04T02:47:01.932Z,0.30
2019-01-04T02:49:30.705Z,0.30
2019-01-04T02:51:59.508Z,0.20
2019-01-04T02:54:28.782Z,0.20
2019-01-04T02:56:57.570Z,0.20
2019-01-04T02:59:26.338Z,0.20
2019-01-04T03:01:55.364Z,0.10
2019-01-04T03:04:24.136Z,0.20
2019-01-04T03:06:52.906Z,0.20
2019-01-04T03:09:21.693Z,0.20
2019-01-04T03:11:50.478Z,0.20
2019-01-04T03:14:19.243Z,0.20
2019-01-04T03:16:48.033Z,0.10
2019-01-04T03:19:16.829Z,0.10
2019-01-04T03:21:45.865Z,0.20
2019-01-04T03:24:14.644Z,0.10
2019-01-04T03:26:43.431Z,0.10
2019-01-04T03:29:12.196Z,0.10
2019-01-04T03:31:40.965Z,0.00
2019-01-04T03:34:09.984Z,0.00
2019-01-04T03:36:38.768Z,-0.10
2019-01-04T03:39:07.864Z,-0.10
2019-01-04T03:41:36.738Z,-0.20
2019-01-04T03:44:05.518Z,-0.20
2019-01-04T03:46:34.317Z,-0.20
2019-01-04T03:49:03.162Z,-0.40
2019-01-04T03:51:32.028Z,-0.50
2019-01-04T03:54:00.804Z,-0.50
2019-01-04T03:56:29.662Z,-0.60
2019-01-04T03:58:58.705Z,-0.80
2019-01-04T04:01:27.572Z,-0.90
2019-01-04T04:03:56.426Z,-1.00
2019-01-04T04:06:25.202Z,-1.00
2019-01-04T04:08:53.995Z,-1.00
2019-01-04T04:11:22.845Z,-1.00
2019-01-04T04:13:51.882Z,-1.00
2019-01-04T04:16:20.657Z,-1.10
2019-01-04T04:18:49.706Z,-1.00
2019-01-04T04:21:18.473Z,-1.00
2019-01-04T04:23:47.349Z,-1.00
2019-01-04T04:26:16.384Z,-0.90
2019-01-04T04:28:45.174Z,-0.90
2019-01-04T04:31:13.945Z,-0.80
2019-01-04T04:33:42.964Z,-0.80
2019-01-04T04:36:11.997Z,-0.80
2019-01-04T04:38:40.791Z,-0.70
2019-01-04T04:41:09.578Z,-0.70
2019-01-04T04:43:38.375Z,-0.70
2019-01-04T04:46:07.402Z,-0.70
2019-01-04T04:48:36.185Z,-0.80
2019-01-04T04:51:04.962Z,-0.80
2019-01-04T04:53:33.758Z,-0.80
2019-01-04T04:56:02.858Z,-0.80
2019-01-04T04:58:31.718Z,-0.80
2019-01-04T05:01:00.505Z,-0.80
2019-01-04T05:03:29.545Z,-0.80
2019-01-04T05:05:58.597Z,-0.80
2019-01-04T05:08:27.394Z,-0.80
2019-01-04T05:10:56.159Z,-0.80
2019-01-04T05:13:24.940Z,-0.80
2019-01-04T05:15:53.707Z,-0.80
2019-01-04T05:18:22.498Z,-0.80
2019-01-04T05:20:51.263Z,-0.80
2019-01-04T05:23:20.314Z,-0.80
2019-01-04T05:25:49.092Z,-0.80
2019-01-04T05:28:18.148Z,-0.90
2019-01-04T05:30:47.181Z,-0.90
2019-01-04T05:33:15.975Z,-0.80
2019-01-04T05:35:44.773Z,-0.70
2019-01-04T05:38:14.090Z,-0.80
2019-01-04T05:40:42.877Z,-0.80
2019-01-04T05:43:11.654Z,-0.70
2019-01-04T05:45:40.457Z,-0.70
2019-01-04T05:48:09.236Z,-0.80
2019-01-04T05:50:38.120Z,-0.80
2019-01-04T05:53:06.887Z,-0.80
2019-01-04T05:55:35.675Z,-0.90
2019-01-04T05:58:04.721Z,-0.90
2019-01-04T06:00:33.505Z,-1.00
2019-01-04T06:03:02.553Z,-1.10
2019-01-04T06:05:31.341Z,-1.10
2019-01-04T06:08:00.145Z,-1.10
2019-01-04T06:10:28.926Z,-1.20
2019-01-04T06:12:57.705Z,-1.20
2019-01-04T06:15:26.499Z,-1.20
2019-01-04T06:17:55.522Z,-1.10
2019-01-04T06:20:24.300Z,-1.10
2019-01-04T06:22:53.157Z,-1.10
2019-01-04T06:25:21.949Z,-1.10
2019-01-04T06:27:50.733Z,-1.10
2019-01-04T06:30:19.508Z,-1.10
2019-01-04T06:32:48.538Z,-1.10
2019-01-04T06:35:17.334Z,-1.00
2019-01-04T06:37:46.116Z,-0.90
2019-01-04T06:40:14.912Z,-0.80
2019-01-04T06:42:43.695Z,-0.80
2019-01-04T06:45:12.492Z,-0.90
2019-01-04T06:47:42.440Z,-1.00
2019-01-04T06:50:11.220Z,-1.00
2019-01-04T06:52:39.997Z,-1.10
2019-01-04T06:55:52.048Z,-1.10
2019-01-04T06:58:20.925Z,-1.20
2019-01-04T07:00:49.825Z,-1.20
2019-01-04T07:03:18.857Z,-1.30
2019-01-04T07:05:47.875Z,-1.30
2019-01-04T07:08:16.975Z,-1.30
2019-01-04T07:10:45.752Z,-1.40
2019-01-04T07:13:14.847Z,-1.50
2019-01-04T07:15:43.706Z,-1.60
2019-01-04T07:18:12.485Z,-1.70
2019-01-04T07:20:41.281Z,-1.80
2019-01-04T07:23:10.334Z,-1.90
2019-01-04T07:25:39.189Z,-1.90
2019-01-04T07:28:08.289Z,-2.00
2019-01-04T07:30:37.144Z,-2.00
2019-01-04T07:33:06.238Z,-2.00
2019-01-04T07:35:35.024Z,-2.00
2019-01-04T07:38:03.900Z,-2.00
2019-01-04T07:40:32.668Z,-2.00
2019-01-04T07:43:01.784Z,-2.00
2019-01-04T07:45:31.917Z,-1.90
2019-01-04T07:48:00.712Z,-1.90
2019-01-04T07:50:29.509Z,-1.80
2019-01-04T07:52:58.462Z,-1.70
2019-01-04T07:55:27.245Z,-1.70
2019-01-04T07:57:56.044Z,-1.60
2019-01-04T08:00:25.155Z,-1.50
2019-01-04T08:02:55.968Z,-1.40
2019-01-04T08:05:26.310Z,-1.40
2019-01-04T08:07:55.221Z,-1.40
2019-01-04T08:10:24.227Z,-1.40
2019-01-04T08:12:53.348Z,-1.40
2019-01-04T08:15:22.216Z,-1.30
2019-01-04T08:17:51.061Z,-1.40
2019-01-04T08:20:19.837Z,-1.30
2019-01-04T08:22:48.695Z,-1.20
2019-01-04T08:25:17.542Z,-1.00
2019-01-04T08:27:46.418Z,-1.00
2019-01-04T08:30:17.251Z,-0.80
2019-01-04T08:32:46.119Z,-0.60
2019-01-04T08:35:14.897Z,-0.50
2019-01-04T08:37:43.685Z,-0.40
2019-01-04T08:40:13.518Z,-0.20
2019-01-04T08:42:42.774Z,0.10
2019-01-04T08:45:13.375Z,0.20
2019-01-04T08:47:42.297Z,0.40
2019-01-04T08:50:15.060Z,0.50
2019-01-04T08:52:44.045Z,0.40
2019-01-04T08:55:24.760Z,0.60
2019-01-04T08:57:53.540Z,0.60
2019-01-04T09:00:22.321Z,0.60
2019-01-04T09:02:52.598Z,0.70
2019-01-04T09:05:21.611Z,1.10
2019-01-04T09:07:50.392Z,1.30
2019-01-04T09:10:19.597Z,1.50
2019-01-04T09:12:48.382Z,1.60
2019-01-04T09:15:17.305Z,1.50
2019-01-04T09:17:46.092Z,1.30
2019-01-04T09:20:15.033Z,1.20
2019-01-04T09:22:44.569Z,1.10
2019-01-04T09:25:13.579Z,1.10
2019-01-04T09:27:42.352Z,1.00
2019-01-04T09:30:15.224Z,1.00
2019-01-04T09:32:44.161Z,1.10
2019-01-04T09:35:13.122Z,1.20
2019-01-04T09:37:41.920Z,1.30
2019-01-04T09:40:12.053Z,1.60
2019-01-04T09:42:43.768Z,1.60
2019-01-04T09:45:12.970Z,2.00
2019-01-04T09:47:42.004Z,2.60
2019-01-04T09:50:12.916Z,2.70
2019-01-04T09:52:41.704Z,3.10
2019-01-04T09:55:10.865Z,3.80
2019-01-04T09:57:39.733Z,4.10
2019-01-04T10:00:13.192Z,3.60
2019-01-04T10:02:42.222Z,3.20
2019-01-04T10:05:11.483Z,2.90
2019-01-04T10:07:40.352Z,2.70
2019-01-04T10:10:11.316Z,2.50
2019-01-04T10:12:40.245Z,2.60
2019-01-04T10:15:12.074Z,2.60
2019-01-04T10:17:40.852Z,2.40
2019-01-04T10:20:09.858Z,2.20
2019-01-04T10:22:51.696Z,2.10
2019-01-04T10:25:25.076Z,1.90
2019-01-04T10:27:54.535Z,2.10
2019-01-04T10:30:27.668Z,2.00
2019-01-04T10:32:56.843Z,1.90
2019-01-04T10:35:25.797Z,1.70
2019-01-04T10:37:55.939Z,1.80
2019-01-04T10:40:24.750Z,2.10
2019-01-04T10:42:53.546Z,2.20
2019-01-04T10:45:23.703Z,2.20
2019-01-04T10:48:02.533Z,2.50
2019-01-04T10:50:31.852Z,2.40
2019-01-04T10:53:00.628Z,2.60
2019-01-04T10:55:29.430Z,2.60
2019-01-04T10:57:58.545Z,2.30
2019-01-04T11:00:27.633Z,2.40
2019-01-04T11:02:56.662Z,2.70
2019-01-04T11:05:25.529Z,2.70
2019-01-04T11:07:54.305Z,2.70
2019-01-04T11:10:23.385Z,2.80
2019-01-04T11:12:52.168Z,2.80
2019-01-04T11:15:21.273Z,2.70
2019-01-04T11:17:50.062Z,2.80
2019-01-04T11:20:40.697Z,2.70
2019-01-04T11:23:27.492Z,2.20
2019-01-04T11:26:23.698Z,2.10
2019-01-04T11:29:25.353Z,2.40
2019-01-04T11:32:08.093Z,2.40
2019-01-04T11:35:03.523Z,2.50
2019-01-04T11:38:08.425Z,2.80
2019-01-04T11:40:59.494Z,2.80
2019-01-04T11:43:57.651Z,3.00
2019-01-04T11:47:12.292Z,2.80
2019-01-04T11:50:11.397Z,3.00
2019-01-04T11:52:48.618Z,2.70
2019-01-04T11:55:17.726Z,2.90
2019-01-04T11:57:46.846Z,3.20
2019-01-04T12:00:15.722Z,2.90
2019-01-04T12:02:44.509Z,2.80
2019-01-04T12:05:14.939Z,2.50
2019-01-04T12:07:43.719Z,2.60
2019-01-04T12:10:12.517Z,2.90
2019-01-04T12:12:41.557Z,3.10
2019-01-04T12:15:10.434Z,3.20
2019-01-04T12:17:39.210Z,2.90
2019-01-04T12:20:08.365Z,2.70
2019-01-04T12:22:37.140Z,2.80
2019-01-04T12:25:06.094Z,3.00
2019-01-04T12:27:35.132Z,3.30
2019-01-04T12:30:04.177Z,3.60
2019-01-04T12:32:33.339Z,4.00
2019-01-04T12:35:02.108Z,4.10
2019-01-04T12:37:30.949Z,4.00
2019-01-04T12:39:59.986Z,3.90
2019-01-04T12:42:28.769Z,3.70
2019-01-04T12:44:57.635Z,3.60
2019-01-04T12:47:26.425Z,3.60
2019-01-04T12:49:55.277Z,3.50
2019-01-04T12:52:24.324Z,3.40
2019-01-04T12:54:53.558Z,3.20
2019-01-04T12:57:22.369Z,3.20
2019-01-04T12:59:51.220Z,3.20
2019-01-04T13:02:20.261Z,3.00
2019-01-04T13:04:49.050Z,3.10
2019-01-04T13:07:17.848Z,3.20
2019-01-04T13:09:46.621Z,3.20
2019-01-04T13:12:15.417Z,3.10
2019-01-04T13:14:44.201Z,3.10
2019-01-04T13:17:13.002Z,3.00
2019-01-04T13:19:41.866Z,3.00
2019-01-04T13:22:11.073Z,3.00
2019-01-04T13:24:40.104Z,2.90
2019-01-04T13:27:08.889Z,2.80
2019-01-04T13:29:38.009Z,2.80
2019-01-04T13:32:07.110Z,2.90
2019-01-04T13:34:35.904Z,3.00
2019-01-04T13:37:04.927Z,2.90
2019-01-04T13:39:52.920Z,2.80
2019-01-04T13:42:21.745Z,2.60
2019-01-04T13:44:50.524Z,2.60
2019-01-04T13:47:19.381Z,2.50
2019-01-04T13:49:48.226Z,2.40
2019-01-04T13:52:16.997Z,2.40
2019-01-04T13:54:46.033Z,2.30
2019-01-04T13:57:14.878Z,2.30
2019-01-04T13:59:43.658Z,2.20
2019-01-04T14:02:12.452Z,2.30
2019-01-04T14:04:41.236Z,2.30
2019-01-04T14:07:10.111Z,2.20
2019-01-04T14:09:38.988Z,2.10
2019-01-04T14:12:08.053Z,2.20
2019-01-04T14:14:36.934Z,2.10
2019-01-04T14:17:05.791Z,2.20
2019-01-04T14:19:34.634Z,2.30
2019-01-04T14:22:03.496Z,2.30
2019-01-04T14:24:32.281Z,2.30
2019-01-04T14:27:01.068Z,2.30
2019-01-04T14:29:30.098Z,2.20
2019-01-04T14:31:58.879Z,2.10
2019-01-04T14:34:27.916Z,2.10
2019-01-04T14:36:56.712Z,2.10
2019-01-04T14:39:25.509Z,2.10
2019-01-04T14:41:54.533Z,2.10
2019-01-04T14:44:23.322Z,2.10
2019-01-04T14:46:52.190Z,2.00
2019-01-04T14:49:20.980Z,2.00
2019-01-04T14:51:50.639Z,1.90
2019-01-04T14:54:20.226Z,1.80
2019-01-04T14:56:49.021Z,1.70
2019-01-04T14:59:17.889Z,1.50
2019-01-04T15:01:46.690Z,1.40
2019-01-04T15:04:15.477Z,1.50
2019-01-04T15:06:44.277Z,1.50
2019-01-04T15:09:13.073Z,1.40
2019-01-04T15:11:41.852Z,1.40
2019-01-04T15:14:10.790Z,1.30
2019-01-04T15:16:42.438Z,1.20
2019-01-04T15:19:18.075Z,1.20
2019-01-04T15:22:37.549Z,1.10
2019-01-04T15:25:06.938Z,1.00
2019-01-04T15:27:35.818Z,1.00
2019-01-04T15:30:05.941Z,1.00
2019-01-04T15:32:34.771Z,0.90
2019-01-04T15:35:04.191Z,0.90
2019-01-04T15:37:33.034Z,0.80
2019-01-04T15:40:02.077Z,0.60
2019-01-04T15:42:31.543Z,0.50
2019-01-04T15:45:00.649Z,0.50
2019-01-04T15:47:29.441Z,0.50
2019-01-04T15:49:58.742Z,0.50
2019-01-04T15:52:27.578Z,0.40
2019-01-04T15:54:56.359Z,0.40
2019-01-04T15:57:25.121Z,0.30
2019-01-04T15:59:54.136Z,0.20
2019-01-04T16:02:22.897Z,0.20
2019-01-04T16:04:51.681Z,0.10
2019-01-04T16:07:20.449Z,0.10
2019-01-04T16:09:49.226Z,0.10
2019-01-04T16:12:18.074Z,0.10
2019-01-04T16:14:46.929Z,0.00
2019-01-04T16:17:15.705Z,0.00
2019-01-04T16:19:44.481Z,0.10
2019-01-04T16:22:13.303Z,0.10
2019-01-04T16:24:42.122Z,0.10
2019-01-04T16:27:11.540Z,0.10
2019-01-04T16:29:41.392Z,0.00
2019-01-04T16:32:10.353Z,0.00
2019-01-04T16:34:39.369Z,0.00
2019-01-04T16:37:08.190Z,-0.10
2019-01-04T16:39:37.002Z,-0.10
2019-01-04T16:42:06.168Z,-0.10
2019-01-04T16:44:34.965Z,0.00
2019-01-04T16:47:04.110Z,0.00
2019-01-04T16:49:36.845Z,0.00
2019-01-04T16:52:05.862Z,0.10
2019-01-04T16:54:34.747Z,0.20
2019-01-04T16:57:03.548Z,0.20
2019-01-04T16:59:32.381Z,0.10
2019-01-04T17:02:01.808Z,0.10
2019-01-04T17:04:30.594Z,0.20
2019-01-04T17:07:00.002Z,0.10
2019-01-04T17:09:28.783Z,0.10
2019-01-04T17:11:59.689Z,0.10
2019-01-04T17:14:38.873Z,0.00
2019-01-04T17:17:08.122Z,0.00
2019-01-04T17:19:40.773Z,0.00
2019-01-04T17:22:08.915Z,0.00
2019-01-04T17:24:47.056Z,-0.10
2019-01-04T17:27:16.322Z,-0.10
2019-01-04T17:29:46.671Z,-0.10
2019-01-04T17:32:15.515Z,-0.10
2019-01-04T17:34:44.590Z,-0.10
2019-01-04T17:37:13.936Z,-0.10
2019-01-04T17:39:43.298Z,-0.10
2019-01-04T17:42:12.371Z,0.00
2019-01-04T17:44:41.827Z,0.10
2019-01-04T17:47:10.697Z,0.20
2019-01-04T17:49:39.481Z,0.20
2019-01-04T17:52:08.333Z,0.30
2019-01-04T17:54:37.114Z,0.30
2019-01-04T17:57:05.969Z,0.30
2019-01-04T17:59:34.811Z,0.30
2019-01-04T18:02:03.920Z,0.30
2019-01-04T18:04:32.951Z,0.30
2019-01-04T18:07:01.812Z,0.30
2019-01-04T18:09:30.825Z,0.40
2019-01-04T18:11:59.610Z,0.40
2019-01-04T18:14:28.461Z,0.40
2019-01-04T18:16:57.258Z,0.40
2019-01-04T18:19:26.028Z,0.40
2019-01-04T18:21:54.826Z,0.40
2019-01-04T18:24:23.876Z,0.50
2019-01-04T18:26:52.976Z,0.50
2019-01-04T18:29:21.736Z,0.60
2019-01-04T18:31:50.525Z,0.60
2019-01-04T18:34:19.301Z,0.50
2019-01-04T18:36:48.093Z,0.60
2019-01-04T18:39:17.116Z,0.50
2019-01-04T18:41:45.894Z,0.60
2019-01-04T18:44:14.922Z,0.50
2019-01-04T18:46:44.049Z,0.60
2019-01-04T18:49:12.832Z,0.50
2019-01-04T18:51:41.888Z,0.50
2019-01-04T18:54:10.656Z,0.50
2019-01-04T18:56:39.770Z,0.50
2019-01-04T18:59:08.797Z,0.50
2019-01-04T19:01:37.570Z,0.50
2019-01-04T19:04:06.336Z,0.50
2019-01-04T19:06:35.441Z,0.60
2019-01-04T19:09:05.832Z,0.60
2019-01-04T19:11:34.691Z,0.50
2019-01-04T19:14:03.805Z,0.40
2019-01-04T19:16:32.617Z,0.50
2019-01-04T19:19:01.542Z,0.50
2019-01-04T19:21:30.663Z,0.50
2019-01-04T19:23:59.471Z,0.50
2019-01-04T19:26:28.249Z,0.60
2019-01-04T19:28:57.300Z,0.50
2019-01-04T19:31:26.421Z,0.50
2019-01-04T19:33:55.196Z,0.50
2019-01-04T19:36:24.224Z,0.60
2019-01-04T19:38:53.022Z,0.60
2019-01-04T19:41:21.801Z,0.60
2019-01-04T19:43:50.584Z,0.70
2019-01-04T19:46:19.607Z,0.70
2019-01-04T19:48:48.377Z,0.80
2019-01-04T19:51:17.153Z,0.80
2019-01-04T19:53:45.952Z,0.70
2019-01-04T19:56:14.725Z,0.80
2019-01-04T19:58:43.833Z,0.70
2019-01-04T20:01:13.382Z,0.70
2019-01-04T20:03:42.416Z,0.70
2019-01-04T20:07:06.300Z,0.80
2019-01-04T20:10:21.704Z,0.80
2019-01-04T20:14:01.738Z,0.90
2019-01-04T20:20:36.134Z,0.80
2019-01-04T20:23:23.241Z,0.70
2019-01-04T20:26:14.190Z,0.70
2019-01-04T20:29:14.194Z,0.70
2019-01-04T20:36:02.681Z,-0.10
2019-01-04T20:38:49.462Z,0.80
2019-01-04T20:41:43.727Z,0.70
2019-01-04T20:44:27.571Z,0.70
2019-01-04T20:47:15.633Z,0.70
2019-01-04T20:49:57.750Z,0.70
2019-01-04T20:52:58.761Z,0.70
2019-01-04T20:55:45.973Z,0.80
2019-01-04T20:58:34.615Z,0.70
2019-01-04T21:01:21.277Z,0.70
2019-01-04T21:04:07.993Z,0.80
2019-01-04T21:06:56.254Z,0.80
2019-01-04T21:09:43.187Z,0.70
2019-01-04T21:12:40.870Z,0.70
2019-01-04T21:15:41.083Z,0.70
2019-01-04T21:18:29.781Z,0.70
2019-01-04T21:21:21.695Z,0.70
2019-01-04T21:24:18.995Z,0.70
2019-01-04T21:27:09.433Z,0.70
2019-01-04T21:29:55.321Z,0.60
2019-01-04T21:32:46.665Z,0.60
2019-01-04T21:35:35.725Z,0.60
2019-01-04T21:38:22.648Z,0.60
2019-01-04T21:41:07.746Z,0.60
2019-01-04T21:43:49.308Z,0.60
2019-01-04T21:46:40.276Z,0.60
2019-01-04T21:49:27.949Z,0.60
2019-01-04T21:52:24.574Z,0.60
2019-01-04T21:55:05.667Z,0.60
2019-01-04T21:58:02.498Z,0.60
2019-01-04T22:00:51.067Z,0.60
2019-01-04T22:03:44.823Z,0.60
2019-01-04T22:06:32.365Z,0.60
2019-01-04T22:09:20.220Z,0.60
2019-01-04T22:12:18.537Z,0.70
2019-01-04T22:15:18.419Z,0.80
2019-01-04T22:18:05.441Z,0.80
2019-01-04T22:20:52.419Z,0.80
2019-01-04T22:23:39.229Z,0.80
2019-01-04T22:26:25.981Z,0.90
2019-01-04T22:29:32.913Z,0.80
2019-01-04T22:32:24.149Z,0.80
2019-01-04T22:35:11.298Z,0.90
2019-01-04T22:38:09.627Z,1.00
2019-01-04T22:41:24.589Z,1.00
2019-01-04T22:44:12.708Z,1.00
2019-01-04T22:47:06.417Z,1.00
2019-01-04T22:50:03.448Z,1.00
2019-01-04T22:52:50.064Z,1.00
2019-01-04T22:55:37.936Z,1.00
2019-01-04T22:58:24.712Z,0.90
2019-01-04T23:01:18.848Z,0.90
2019-01-04T23:04:21.812Z,1.00
2019-01-04T23:07:13.246Z,1.00
2019-01-04T23:09:55.413Z,1.00
2019-01-04T23:12:31.685Z,1.00
2019-01-04T23:15:20.005Z,1.00
2019-01-04T23:18:19.029Z,1.10
2019-01-04T23:21:13.204Z,1.00
2019-01-04T23:24:00.081Z,0.90
2019-01-04T23:26:57.199Z,0.90
2019-01-04T23:29:45.306Z,0.80
2019-01-04T23:32:35.850Z,0.80
2019-01-04T23:35:35.829Z,0.80
2019-01-04T23:38:21.513Z,0.80
2019-01-04T23:41:08.361Z,0.80
2019-01-04T23:43:59.319Z,0.90
2019-01-04T23:46:55.580Z,1.00
2019-01-04T23:49:52.848Z,1.10
2019-01-04T23:52:40.785Z,1.00
2019-01-04T23:55:34.757Z,1.10
2019-01-04T23:58:36.696Z,1.00
